Randolph, Illinois
Current Conditions -  °F | °C
As of 6:56 PM on Monday 22 Dec 2014 (Local Time) from KBMI Reporting Station
Light Rain Light Rain  
Wind Chill: 38°   Ceiling: 400
Heat Index: 44°   Visibility: 3mi
Dew Point: 44°   Wind: 13mph
Humidity: 100%   Direction: 140°SE
Pressure: 29.59"   Gusts: 21mph
Location:  40.3419°N, 88.9792°W
Report Text: KBMI 230056Z 14011G18KT 3SM -RA BR OVC004 07/07 A2959 RMK AO2 T00660066 P0005 SLP031
Loading
Personal Weather Stations






























Interactive Weather Map New forecast layout! Learn more

10-Day Weather Forecast

Advertisements
Track Severe Weather on mobile